createdAt,value
2019-01-13T00:00:43.219Z,69.85
2019-01-13T00:05:47.557Z,69.73
2019-01-13T00:10:51.312Z,70.11
2019-01-13T00:15:55.072Z,69.93
2019-01-13T00:20:59.101Z,70.22
2019-01-13T00:26:02.585Z,70.12
2019-01-13T00:31:06.263Z,70.37
2019-01-13T00:36:10.374Z,70.52
2019-01-13T00:41:14.611Z,70.58
2019-01-13T00:46:18.527Z,70.62
2019-01-13T00:51:21.803Z,70.88
2019-01-13T00:56:26.305Z,70.74
2019-01-13T01:01:29.564Z,70.81
2019-01-13T01:06:32.784Z,71.13
2019-01-13T01:11:36.027Z,71.21
2019-01-13T01:16:39.490Z,71.17
2019-01-13T01:21:42.828Z,71.00
2019-01-13T01:26:46.056Z,71.39
2019-01-13T01:31:49.248Z,71.29
2019-01-13T01:36:54.257Z,71.12
2019-01-13T01:41:55.899Z,71.07
2019-01-13T01:46:59.140Z,71.35
2019-01-13T01:52:02.367Z,71.24
2019-01-13T01:57:06.663Z,71.10
2019-01-13T02:02:09.913Z,71.30
2019-01-13T02:07:13.141Z,71.30
2019-01-13T02:12:16.429Z,71.41
2019-01-13T02:17:19.664Z,71.42
2019-01-13T02:22:23.059Z,71.23
2019-01-13T02:27:26.298Z,71.28
2019-01-13T02:32:29.643Z,71.06
2019-01-13T02:37:32.946Z,71.25
2019-01-13T02:42:36.167Z,71.43
2019-01-13T02:47:39.586Z,71.26
2019-01-13T02:52:42.882Z,71.46
2019-01-13T02:57:46.102Z,71.39
2019-01-13T03:02:49.467Z,71.25
2019-01-13T03:07:52.725Z,71.44
2019-01-13T03:12:56.135Z,71.56
2019-01-13T03:17:59.349Z,71.23
2019-01-13T03:23:03.686Z,71.22
2019-01-13T03:28:07.019Z,71.31
2019-01-13T03:33:10.373Z,71.20
2019-01-13T03:38:13.621Z,71.22
2019-01-13T03:43:16.871Z,71.10
2019-01-13T03:48:20.190Z,71.43
2019-01-13T03:53:23.459Z,71.25
2019-01-13T03:58:26.749Z,71.24
2019-01-13T04:03:30.027Z,71.35
2019-01-13T04:08:34.267Z,71.46
2019-01-13T04:13:37.576Z,71.56
2019-01-13T04:18:40.877Z,71.59
2019-01-13T04:23:44.131Z,71.49
2019-01-13T04:28:47.668Z,71.41
2019-01-13T04:33:50.875Z,71.43
2019-01-13T04:38:54.157Z,71.60
2019-01-13T04:43:57.528Z,71.61
2019-01-13T04:49:00.851Z,71.18
2019-01-13T04:54:04.195Z,71.68
2019-01-13T04:59:07.442Z,71.81
2019-01-13T05:04:10.808Z,71.63
2019-01-13T05:09:14.036Z,71.88
2019-01-13T05:14:17.458Z,71.82
2019-01-13T05:19:20.684Z,71.88
2019-01-13T05:24:23.967Z,71.68
2019-01-13T05:29:27.211Z,71.70
2019-01-13T05:34:30.419Z,71.68
2019-01-13T05:39:33.652Z,71.91
2019-01-13T05:44:36.883Z,71.60
2019-01-13T05:49:40.275Z,71.63
2019-01-13T05:54:43.492Z,71.76
2019-01-13T05:59:46.907Z,71.66
2019-01-13T06:04:50.225Z,71.37
2019-01-13T06:09:53.467Z,71.43
2019-01-13T06:14:56.729Z,71.36
2019-01-13T06:19:59.993Z,71.38
2019-01-13T06:25:03.265Z,71.33
2019-01-13T06:30:08.947Z,71.44
2019-01-13T06:35:11.211Z,71.46
2019-01-13T06:40:16.308Z,71.62
2019-01-13T06:45:21.719Z,71.06
2019-01-13T06:50:25.096Z,71.50
2019-01-13T06:55:28.375Z,71.04
2019-01-13T07:00:32.041Z,71.20
2019-01-13T07:05:34.952Z,70.89
2019-01-13T07:10:38.231Z,71.00
2019-01-13T07:15:41.451Z,71.17
2019-01-13T07:20:44.756Z,71.41
2019-01-13T07:25:48.000Z,71.41
2019-01-13T07:30:51.313Z,71.39
2019-01-13T07:35:54.580Z,71.44
2019-01-13T07:40:57.937Z,71.50
2019-01-13T07:46:01.227Z,71.30
2019-01-13T07:51:04.476Z,71.26
2019-01-13T07:56:07.720Z,71.17
2019-01-13T08:01:11.083Z,71.41
2019-01-13T08:06:14.308Z,71.28
2019-01-13T08:11:17.651Z,71.16
2019-01-13T08:16:20.869Z,70.95
2019-01-13T08:21:24.229Z,71.11
2019-01-13T08:26:27.559Z,71.17
2019-01-13T08:31:31.991Z,70.95
2019-01-13T08:36:35.226Z,71.26
2019-01-13T08:41:38.515Z,70.87
2019-01-13T08:46:41.792Z,71.28
2019-01-13T08:51:45.034Z,71.37
2019-01-13T08:56:48.431Z,71.15
2019-01-13T09:01:51.665Z,71.32
2019-01-13T09:06:54.892Z,71.28
2019-01-13T09:11:58.167Z,71.12
2019-01-13T09:17:01.408Z,70.87
2019-01-13T09:22:04.758Z,70.85
2019-01-13T09:27:08.010Z,70.45
2019-01-13T09:32:11.240Z,70.51
2019-01-13T09:37:14.503Z,70.56
2019-01-13T09:42:17.780Z,70.66
2019-01-13T09:47:21.213Z,70.72
2019-01-13T09:52:24.596Z,70.70
2019-01-13T09:57:28.039Z,71.00
2019-01-13T10:02:31.276Z,70.98
2019-01-13T10:07:34.628Z,71.12
2019-01-13T10:12:38.003Z,71.26
2019-01-13T10:17:41.386Z,71.46
2019-01-13T10:22:44.638Z,70.96
2019-01-13T10:27:48.049Z,70.92
2019-01-13T10:32:54.740Z,70.76
2019-01-13T10:37:55.153Z,70.50
2019-01-13T10:42:58.485Z,70.70
2019-01-13T10:48:01.952Z,70.22
2019-01-13T10:53:07.060Z,69.95
2019-01-13T10:58:10.408Z,69.61
2019-01-13T11:03:13.836Z,69.38
2019-01-13T11:08:17.184Z,69.64
2019-01-13T11:13:20.516Z,69.47
2019-01-13T11:18:23.947Z,69.79
2019-01-13T11:23:27.281Z,69.63
2019-01-13T11:28:30.714Z,70.09
2019-01-13T11:33:34.017Z,70.06
2019-01-13T11:38:37.459Z,70.13
2019-01-13T11:43:40.920Z,69.87
2019-01-13T11:48:44.359Z,70.16
2019-01-13T11:53:47.659Z,70.00
2019-01-13T11:58:50.962Z,69.98
2019-01-13T12:04:03.563Z,70.28
2019-01-13T12:09:08.029Z,70.44
2019-01-13T12:14:11.407Z,70.31
2019-01-13T12:19:15.129Z,69.58
2019-01-13T12:24:18.469Z,70.10
2019-01-13T12:29:21.831Z,70.23
2019-01-13T12:34:25.264Z,69.97
2019-01-13T12:39:28.674Z,69.66
2019-01-13T12:44:32.119Z,69.75
2019-01-13T12:49:35.654Z,69.42
2019-01-13T12:54:39.105Z,69.74
2019-01-13T12:59:42.441Z,69.36
2019-01-13T13:04:45.827Z,69.69
2019-01-13T13:09:49.530Z,68.91
2019-01-13T13:14:53.630Z,69.52
2019-01-13T13:19:57.103Z,69.68
2019-01-13T13:25:00.498Z,70.14
2019-01-13T13:30:04.516Z,69.86
2019-01-13T13:35:07.948Z,69.69
2019-01-13T13:40:12.476Z,69.80
2019-01-13T13:45:15.909Z,70.25
2019-01-13T13:50:21.867Z,70.21
2019-01-13T13:55:25.215Z,70.23
2019-01-13T14:00:31.051Z,70.43
2019-01-13T14:05:34.370Z,70.29
2019-01-13T14:10:42.213Z,70.35
2019-01-13T14:15:45.580Z,70.18
2019-01-13T14:20:51.882Z,69.95
2019-01-13T14:25:55.328Z,69.98
2019-01-13T14:30:58.765Z,69.93
2019-01-13T14:36:02.252Z,70.10
2019-01-13T14:41:05.619Z,70.17
2019-01-13T14:46:09.138Z,70.40
2019-01-13T14:51:12.503Z,70.00
2019-01-13T14:56:15.985Z,69.70
2019-01-13T15:01:19.318Z,69.45
2019-01-13T15:06:22.691Z,69.34
2019-01-13T15:11:26.120Z,69.75
2019-01-13T15:16:29.585Z,70.31
2019-01-13T15:21:32.916Z,70.49
2019-01-13T15:26:36.351Z,70.72
2019-01-13T15:31:39.735Z,70.56
2019-01-13T15:36:43.067Z,70.86
2019-01-13T15:41:46.408Z,70.81
2019-01-13T15:46:49.742Z,70.59
2019-01-13T15:51:53.272Z,70.37
2019-01-13T15:56:56.681Z,70.36
2019-01-13T16:02:00.127Z,70.29
2019-01-13T16:07:03.487Z,70.57
2019-01-13T16:12:06.802Z,70.54
2019-01-13T16:17:10.197Z,70.80
2019-01-13T16:22:14.082Z,70.49
2019-01-13T16:27:17.390Z,70.82
2019-01-13T16:32:20.836Z,70.73
2019-01-13T16:37:24.184Z,71.14
2019-01-13T16:42:28.233Z,71.23
2019-01-13T16:47:31.580Z,71.24
2019-01-13T16:52:34.977Z,71.62
2019-01-13T16:57:38.424Z,71.46
2019-01-13T17:02:41.788Z,71.63
2019-01-13T17:07:45.366Z,71.67
2019-01-13T17:12:48.823Z,71.58
2019-01-13T17:17:52.146Z,71.87
2019-01-13T17:22:55.491Z,71.79
2019-01-13T17:27:58.830Z,71.52
2019-01-13T17:33:02.269Z,71.46
2019-01-13T17:38:05.894Z,71.67
2019-01-13T17:43:10.256Z,71.73
2019-01-13T17:48:13.565Z,72.18
2019-01-13T17:53:16.979Z,72.23
2019-01-13T17:58:20.298Z,71.68
2019-01-13T18:03:30.263Z,71.87
2019-01-13T18:08:33.612Z,71.79
2019-01-13T18:13:37.107Z,71.63
2019-01-13T18:18:40.489Z,71.38
2019-01-13T18:23:43.911Z,71.35
2019-01-13T18:28:47.294Z,70.99
2019-01-13T18:33:50.725Z,71.18
2019-01-13T18:38:54.789Z,71.25
2019-01-13T18:43:58.108Z,71.33
2019-01-13T18:49:01.533Z,71.30
2019-01-13T18:54:05.633Z,71.29
2019-01-13T18:59:09.107Z,71.34
2019-01-13T19:04:12.436Z,71.03
2019-01-13T19:09:17.384Z,71.06
2019-01-13T19:14:34.617Z,71.24
2019-01-13T19:19:49.390Z,70.98
2019-01-13T19:24:59.312Z,70.64
2019-01-13T19:30:02.745Z,70.57
2019-01-13T19:35:07.447Z,70.94
2019-01-13T19:40:12.408Z,71.12
2019-01-13T19:45:19.110Z,71.15
2019-01-13T19:50:25.344Z,70.75
2019-01-13T19:55:29.403Z,70.80
2019-01-13T20:00:35.380Z,70.82
2019-01-13T20:05:39.283Z,70.94
2019-01-13T20:10:44.068Z,71.09
2019-01-13T20:15:47.968Z,71.07
2019-01-13T20:20:52.486Z,71.16
2019-01-13T20:25:56.627Z,70.75
2019-01-13T20:30:59.959Z,70.38
2019-01-13T20:36:03.407Z,69.90
2019-01-13T20:41:06.973Z,69.36
2019-01-13T20:46:12.026Z,68.97
2019-01-13T20:51:16.061Z,68.63
2019-01-13T20:56:19.981Z,68.32
2019-01-13T21:01:25.207Z,67.69
2019-01-13T21:06:29.916Z,67.93
2019-01-13T21:11:34.289Z,67.97
2019-01-13T21:16:38.013Z,67.62
2019-01-13T21:21:41.369Z,67.51
2019-01-13T21:26:45.004Z,68.37
2019-01-13T21:31:48.915Z,68.15
2019-01-13T21:36:53.178Z,68.52
2019-01-13T21:41:56.999Z,68.65
2019-01-13T21:47:01.653Z,69.39
2019-01-13T21:52:06.518Z,68.60
2019-01-13T21:57:10.446Z,67.75
2019-01-13T22:02:14.206Z,68.41
2019-01-13T22:07:18.302Z,68.54
2019-01-13T22:12:22.065Z,68.17
2019-01-13T22:17:25.836Z,68.55
2019-01-13T22:22:29.466Z,67.96
2019-01-13T22:27:32.847Z,67.34
2019-01-13T22:32:36.143Z,67.34
2019-01-13T22:37:39.839Z,66.98
2019-01-13T22:42:43.635Z,67.19
2019-01-13T22:47:47.221Z,67.48
2019-01-13T22:52:51.229Z,67.31
2019-01-13T22:57:54.439Z,67.32
2019-01-13T23:02:57.894Z,67.36
2019-01-13T23:08:01.122Z,67.56
2019-01-13T23:13:04.376Z,67.19
2019-01-13T23:18:07.719Z,66.46
2019-01-13T23:23:10.931Z,66.52
2019-01-13T23:28:14.144Z,67.13
2019-01-13T23:33:17.351Z,67.46
2019-01-13T23:38:20.585Z,67.90
2019-01-13T23:43:23.788Z,66.85
2019-01-13T23:48:26.991Z,67.22
2019-01-13T23:53:30.375Z,66.21
2019-01-13T23:58:33.592Z,66.23
